DLH59 DNPO-DNAA
Flight info
| Callsign | DLH59 |
|---|---|
| Flight time | 0h 48m |
| Altitude | 23000 |
| Route | ETVUN1S ETVUN H206 APVOT/N0449F370 UH206 ENG UJ707 ULSIX/N0366F230 J707 AMTIR UJ707 NANUV NANUV1N |
| Aircraft | A343/H-SDE2E3FGHIJ3J5M1P2RWXYZ/LB1D1 |
Departure
| Time | 2026-05-04 10:49 |
|---|---|
| Airport | Port Harcourt International Airport (DNPO) |
Arrival
| Time | 2026-05-04 11:38 |
|---|---|
| Airport | Nnamdi Azikiwe International Airport (DNAA) |
| Time | Latitude | Longitude | Altitude | Speed | Heading |
|---|---|---|---|---|---|
| 2026-05-04 10:30 | 5.01530 | 6.95312 | 83 ft | 0 kts | 117° |
| 2026-05-04 10:40 | 5.01536 | 6.95301 | 81 ft | 3 kts | 118° |
| 2026-05-04 10:40 | 5.01546 | 6.95283 | 81 ft | 3 kts | 119° |
| 2026-05-04 10:41 | 5.01556 | 6.95266 | 80 ft | 3 kts | 118° |
| 2026-05-04 10:41 | 5.01565 | 6.95247 | 80 ft | 3 kts | 112° |
| 2026-05-04 10:41 | 5.01573 | 6.95229 | 82 ft | 3 kts | 112° |
| 2026-05-04 10:41 | 5.01580 | 6.95210 | 83 ft | 2 kts | 111° |
| 2026-05-04 10:42 | 5.01582 | 6.95206 | 82 ft | 0 kts | 110° |
| 2026-05-04 10:44 | 5.01727 | 6.95280 | 86 ft | 20 kts | 28° |
| 2026-05-04 10:45 | 5.01856 | 6.95350 | 84 ft | 21 kts | 28° |
| 2026-05-04 10:45 | 5.01993 | 6.95425 | 82 ft | 24 kts | 29° |
| 2026-05-04 10:45 | 5.02139 | 6.95504 | 82 ft | 24 kts | 28° |
| 2026-05-04 10:45 | 5.02293 | 6.95586 | 81 ft | 26 kts | 28° |
| 2026-05-04 10:46 | 5.02453 | 6.95671 | 84 ft | 24 kts | 28° |
| 2026-05-04 10:46 | 5.02549 | 6.95723 | 84 ft | 12 kts | 28° |
| 2026-05-04 10:46 | 5.02627 | 6.95742 | 82 ft | 10 kts | 345° |
| 2026-05-04 10:46 | 5.02670 | 6.95693 | 83 ft | 8 kts | 297° |
| 2026-05-04 10:47 | 5.02675 | 6.95684 | 82 ft | 0 kts | 297° |
| 2026-05-04 10:47 | 5.02677 | 6.95680 | 81 ft | 2 kts | 297° |
| 2026-05-04 10:47 | 5.02688 | 6.95658 | 80 ft | 5 kts | 297° |
| 2026-05-04 10:49 | 5.00638 | 6.94459 | 424 ft | 163 kts | 207° |
| 2026-05-04 10:49 | 4.99664 | 6.93869 | 1091 ft | 169 kts | 221° |
| 2026-05-04 10:50 | 4.98866 | 6.92918 | 1506 ft | 193 kts | 238° |
| 2026-05-04 10:51 | 5.07211 | 6.92952 | 7196 ft | 269 kts | 40° |
| 2026-05-04 10:52 | 5.08680 | 6.94083 | 8139 ft | 271 kts | 41° |
| 2026-05-04 10:52 | 5.10162 | 6.95259 | 9084 ft | 273 kts | 42° |
| 2026-05-04 10:52 | 5.11646 | 6.96458 | 10039 ft | 275 kts | 43° |
| 2026-05-04 10:54 | 5.23012 | 7.05808 | 14216 ft | 339 kts | 41° |
| 2026-05-04 10:54 | 5.24727 | 7.07442 | 14880 ft | 341 kts | 51° |
| 2026-05-04 10:56 | 5.31725 | 7.23196 | 19470 ft | 370 kts | 68° |
| 2026-05-04 10:56 | 5.32722 | 7.25599 | 19991 ft | 375 kts | 68° |
| 2026-05-04 10:56 | 5.33732 | 7.28034 | 20524 ft | 381 kts | 68° |
| 2026-05-04 10:57 | 5.34758 | 7.30506 | 21046 ft | 386 kts | 68° |
| 2026-05-04 10:57 | 5.35823 | 7.32998 | 21566 ft | 391 kts | 65° |
| 2026-05-04 10:57 | 5.37281 | 7.35317 | 22070 ft | 397 kts | 50° |
| 2026-05-04 10:57 | 5.39360 | 7.37166 | 22570 ft | 404 kts | 33° |
| 2026-05-04 10:58 | 5.41895 | 7.38334 | 22904 ft | 410 kts | 17° |
| 2026-05-04 10:58 | 5.44698 | 7.38694 | 22986 ft | 405 kts | 359° |
| 2026-05-04 10:58 | 5.47460 | 7.38261 | 22986 ft | 400 kts | 347° |
| 2026-05-04 10:58 | 5.50156 | 7.37549 | 22979 ft | 401 kts | 346° |
| 2026-05-04 10:59 | 5.52851 | 7.36815 | 22979 ft | 402 kts | 346° |
| 2026-05-04 10:59 | 5.55557 | 7.36087 | 22979 ft | 402 kts | 346° |
| 2026-05-04 10:59 | 5.58261 | 7.35367 | 22978 ft | 402 kts | 346° |
| 2026-05-04 10:59 | 5.60967 | 7.34651 | 22979 ft | 402 kts | 346° |
| 2026-05-04 11:00 | 5.63672 | 7.33937 | 22978 ft | 402 kts | 347° |
| 2026-05-04 11:01 | 5.82725 | 7.30871 | 23331 ft | 409 kts | 20° |
| 2026-05-04 11:02 | 5.85399 | 7.31894 | 23790 ft | 414 kts | 24° |
| 2026-05-04 11:02 | 5.88044 | 7.33067 | 24195 ft | 418 kts | 25° |
| 2026-05-04 11:05 | 6.26810 | 7.50640 | 30073 ft | 456 kts | 23° |
| 2026-05-04 11:06 | 6.29719 | 7.51935 | 30378 ft | 458 kts | 23° |
| 2026-05-04 11:06 | 6.32641 | 7.53236 | 30683 ft | 461 kts | 24° |
| 2026-05-04 11:06 | 6.35580 | 7.54545 | 30990 ft | 463 kts | 24° |
| 2026-05-04 11:06 | 6.38533 | 7.55860 | 31262 ft | 466 kts | 24° |
| 2026-05-04 11:08 | 6.60853 | 7.60145 | 33399 ft | 475 kts | 360° |
| 2026-05-04 11:10 | 6.83832 | 7.59977 | 35913 ft | 464 kts | 359° |
| 2026-05-04 11:12 | 7.06152 | 7.59892 | 36973 ft | 453 kts | 359° |
| 2026-05-04 11:12 | 7.09304 | 7.59874 | 36971 ft | 453 kts | 358° |
| 2026-05-04 11:12 | 7.15614 | 7.59839 | 36936 ft | 453 kts | 359° |
| 2026-05-04 11:13 | 7.18779 | 7.59822 | 36693 ft | 457 kts | 358° |
| 2026-05-04 11:13 | 7.21965 | 7.59805 | 36445 ft | 459 kts | 359° |
| 2026-05-04 11:13 | 7.25168 | 7.59789 | 36203 ft | 461 kts | 358° |
| 2026-05-04 11:13 | 7.28375 | 7.59773 | 35953 ft | 461 kts | 359° |
| 2026-05-04 11:14 | 7.31590 | 7.59757 | 35718 ft | 463 kts | 359° |
| 2026-05-04 11:14 | 7.34812 | 7.59741 | 35480 ft | 464 kts | 359° |
| 2026-05-04 11:14 | 7.38038 | 7.59726 | 35238 ft | 465 kts | 359° |
| 2026-05-04 11:16 | 7.60952 | 7.59632 | 30712 ft | 471 kts | 359° |
| 2026-05-04 11:16 | 7.64218 | 7.59625 | 30186 ft | 468 kts | 359° |
| 2026-05-04 11:16 | 7.67466 | 7.59617 | 29597 ft | 465 kts | 359° |
| 2026-05-04 11:17 | 7.70689 | 7.59608 | 29033 ft | 461 kts | 359° |
| 2026-05-04 11:17 | 7.73885 | 7.59599 | 28489 ft | 457 kts | 359° |
| 2026-05-04 11:19 | 7.95617 | 7.59534 | 24762 ft | 436 kts | 359° |
| 2026-05-04 11:19 | 7.98647 | 7.59525 | 24229 ft | 434 kts | 360° |
| 2026-05-04 11:19 | 8.01660 | 7.59516 | 23703 ft | 432 kts | 360° |
| 2026-05-04 11:19 | 8.04661 | 7.59507 | 23136 ft | 430 kts | 0° |
| 2026-05-04 11:20 | 8.07637 | 7.59498 | 22604 ft | 426 kts | 0° |
| 2026-05-04 11:20 | 8.10594 | 7.59483 | 22043 ft | 423 kts | 0° |
| 2026-05-04 11:20 | 8.13487 | 7.59465 | 21532 ft | 419 kts | 1° |
| 2026-05-04 11:20 | 8.16427 | 7.59446 | 21022 ft | 415 kts | 1° |
| 2026-05-04 11:22 | 8.35725 | 7.56395 | 17541 ft | 396 kts | 346° |
| 2026-05-04 11:22 | 8.38344 | 7.55583 | 17053 ft | 391 kts | 346° |
| 2026-05-04 11:23 | 8.40934 | 7.54783 | 16577 ft | 387 kts | 347° |
| 2026-05-04 11:23 | 8.43495 | 7.53994 | 16105 ft | 383 kts | 347° |
| 2026-05-04 11:24 | 8.58395 | 7.49413 | 13306 ft | 364 kts | 348° |
| 2026-05-04 11:25 | 8.60805 | 7.48671 | 12837 ft | 360 kts | 347° |
| 2026-05-04 11:25 | 8.63190 | 7.47937 | 12404 ft | 356 kts | 347° |
| 2026-05-04 11:25 | 8.65551 | 7.47210 | 11971 ft | 353 kts | 347° |
| 2026-05-04 11:26 | 8.70202 | 7.45779 | 11109 ft | 347 kts | 347° |
| 2026-05-04 11:27 | 8.84929 | 7.41240 | 9713 ft | 293 kts | 347° |
| 2026-05-04 11:28 | 8.86857 | 7.40646 | 9183 ft | 287 kts | 347° |
| 2026-05-04 11:28 | 8.88775 | 7.40057 | 8789 ft | 289 kts | 346° |
| 2026-05-04 11:28 | 8.90697 | 7.39468 | 8440 ft | 288 kts | 346° |
| 2026-05-04 11:28 | 8.92617 | 7.38897 | 8121 ft | 286 kts | 349° |
| 2026-05-04 11:29 | 8.94574 | 7.38659 | 7799 ft | 282 kts | 1° |
| 2026-05-04 11:29 | 8.96531 | 7.38637 | 7474 ft | 281 kts | 2° |
| 2026-05-04 11:29 | 8.98483 | 7.38642 | 7149 ft | 280 kts | 2° |
| 2026-05-04 11:29 | 9.00398 | 7.38645 | 6816 ft | 279 kts | 2° |
| 2026-05-04 11:31 | 9.11555 | 7.43844 | 5003 ft | 239 kts | 9° |
| 2026-05-04 11:33 | 9.14730 | 7.36264 | 3961 ft | 189 kts | 214° |
| 2026-05-04 11:33 | 9.13665 | 7.35556 | 3792 ft | 179 kts | 213° |
| 2026-05-04 11:33 | 9.12673 | 7.34842 | 3556 ft | 171 kts | 214° |
| 2026-05-04 11:34 | 9.11738 | 7.34170 | 3339 ft | 160 kts | 213° |
| 2026-05-04 11:34 | 9.10844 | 7.33538 | 3129 ft | 152 kts | 214° |
| 2026-05-04 11:34 | 9.10006 | 7.32940 | 2945 ft | 141 kts | 214° |
| 2026-05-04 11:34 | 9.09219 | 7.32378 | 2762 ft | 136 kts | 214° |
| 2026-05-04 11:35 | 9.08442 | 7.31827 | 2595 ft | 136 kts | 214° |
| 2026-05-04 11:35 | 9.07666 | 7.31276 | 2414 ft | 136 kts | 214° |
| 2026-05-04 11:35 | 9.06894 | 7.30727 | 2250 ft | 136 kts | 213° |
| 2026-05-04 11:35 | 9.06121 | 7.30178 | 2083 ft | 136 kts | 213° |
| 2026-05-04 11:36 | 9.05346 | 7.29627 | 1915 ft | 136 kts | 214° |
| 2026-05-04 11:36 | 9.04570 | 7.29076 | 1756 ft | 136 kts | 216° |
| 2026-05-04 11:36 | 9.03790 | 7.28521 | 1618 ft | 138 kts | 214° |
| 2026-05-04 11:36 | 9.03004 | 7.27967 | 1409 ft | 136 kts | 214° |
| 2026-05-04 11:37 | 9.02247 | 7.27424 | 1227 ft | 132 kts | 215° |
| 2026-05-04 11:37 | 9.01513 | 7.26907 | 1138 ft | 115 kts | 216° |
| 2026-05-04 11:37 | 9.01005 | 7.26546 | 1115 ft | 63 kts | 215° |
| 2026-05-04 11:37 | 9.00701 | 7.26330 | 1112 ft | 51 kts | 215° |
| 2026-05-04 11:38 | 9.00428 | 7.26139 | 1109 ft | 43 kts | 214° |
| 2026-05-04 11:38 | 9.00246 | 7.26027 | 1109 ft | 24 kts | 198° |
| 2026-05-04 11:38 | 9.00109 | 7.26045 | 1104 ft | 19 kts | 132° |
| 2026-05-04 11:38 | 9.00147 | 7.26145 | 1109 ft | 17 kts | 40° |
| 2026-05-04 11:39 | 9.00245 | 7.26213 | 1105 ft | 17 kts | 33° |
| 2026-05-04 11:39 | 9.00340 | 7.26282 | 1108 ft | 17 kts | 37° |
| 2026-05-04 11:40 | 9.00457 | 7.26714 | 1135 ft | 11 kts | 65° |
| 2026-05-04 11:41 | 9.00541 | 7.26755 | 1133 ft | 9 kts | 1° |
| 2026-05-04 11:41 | 9.00571 | 7.26755 | 1130 ft | 0 kts | 360° |